Time;durP1;ratioP1;P1;durP2;ratioP2;P2;SDS_P1;SDS_P2;PMS_P1;PMS_P2;Temp;Humidity;BMP_temperature;BMP_pressure;BME280_temperature;BME280_humidity;BME280_pressure;Samples;Min_cycle;Max_cycle;Signal;HPM_P1;HPM_P2
2024/04/01 00:12:22;;;;;;;9.63;6.85;;;;;;;9.38;67.03;99687.25;4868561;29;20052;-71
2024/04/01 00:20:33;;;;;;;11.07;6.60;;;;;;;9.40;67.15;99667.34;4867494;29;20041;-70
2024/04/01 00:23:00;;;;;;;12.15;6.70;;;;;;;9.33;66.89;99655.25;4865053;29;20059;-70
2024/04/01 00:25:26;;;;;;;11.50;7.15;;;;;;;9.30;67.09;99640.56;4867661;29;20456;-72
2024/04/01 00:27:52;;;;;;;9.88;6.72;;;;;;;9.44;66.74;99660.38;4865459;29;20045;-71
2024/04/01 00:30:19;;;;;;;8.55;6.40;;;;;;;9.39;67.14;99655.22;4866706;29;20048;-70
2024/04/01 00:32:45;;;;;;;12.13;6.85;;;;;;;9.53;67.01;99667.25;4850291;29;20045;-71
2024/04/01 00:35:11;;;;;;;12.10;7.25;;;;;;;9.50;67.03;99657.75;4866472;29;20045;-70
2024/04/01 00:37:38;;;;;;;10.10;6.80;;;;;;;9.54;67.31;99655.97;4847304;29;20106;-71
2024/04/01 00:40:05;;;;;;;11.52;6.97;;;;;;;9.57;67.45;99654.25;4865999;29;20697;-70
2024/04/01 00:42:31;;;;;;;13.40;7.10;;;;;;;9.53;67.20;99647.34;4865924;29;20044;-71
2024/04/01 00:44:58;;;;;;;13.02;7.47;;;;;;;9.60;67.36;99658.53;4848417;29;20052;-69
2024/04/01 00:47:25;;;;;;;9.95;7.03;;;;;;;9.55;67.38;99640.41;4865359;29;20051;-71
2024/04/01 00:49:51;;;;;;;10.07;7.28;;;;;;;9.51;66.78;99646.50;4850801;29;20424;-71
2024/04/01 00:52:18;;;;;;;13.70;7.70;;;;;;;9.51;67.15;99643.88;4865197;29;20052;-71
2024/04/01 00:54:45;;;;;;;11.93;7.47;;;;;;;9.52;67.33;99645.63;4865254;29;20275;-73
2024/04/01 01:06:33;;;;;;;14.07;7.82;;;;;;;9.61;67.44;99635.13;4867370;29;20078;-72
2024/04/01 01:08:59;;;;;;;12.30;7.82;;;;;;;9.58;67.03;99632.59;4865360;29;20041;-69
2024/04/01 01:11:26;;;;;;;14.70;7.55;;;;;;;9.50;66.66;99644.75;4854279;29;20762;-71
2024/04/01 01:13:52;;;;;;;11.20;7.20;;;;;;;9.52;67.20;99635.22;4849031;29;20052;-71
2024/04/01 05:48:27;;;;;;;14.18;6.10;;;;;;;17.52;51.78;99415.81;4869362;29;20052;-73
2024/04/01 05:50:53;;;;;;;12.10;6.00;;;;;;;18.33;50.48;99415.72;4872445;29;20136;-73
2024/04/01 05:57:47;;;;;;;13.70;5.70;;;;;;;20.24;46.49;99399.97;4872509;29;20481;-75
2024/04/01 06:09:46;;;;;;;12.35;6.03;;;;;;;23.27;38.64;99372.66;4870367;29;20049;-73
2024/04/01 06:16:52;;;;;;;14.90;5.85;;;;;;;25.78;35.15;99387.25;4877454;29;20049;-74
2024/04/01 06:28:11;;;;;;;16.15;6.18;;;;;;;27.04;31.76;99359.28;4874744;29;20109;-75
2024/04/01 06:36:00;;;;;;;12.23;5.63;;;;;;;25.04;30.79;99372.50;4876988;29;20052;-74
2024/04/01 07:36:09;;;;;;;13.73;4.80;;;;;;;36.56;18.39;99296.63;4872626;29;20101;-74
2024/04/01 07:38:36;;;;;;;10.18;4.90;;;;;;;36.99;18.29;99300.28;4888637;29;21266;-74
2024/04/01 07:41:02;;;;;;;15.02;4.78;;;;;;;37.63;17.14;99303.78;4906115;29;20131;-75
2024/04/01 07:43:28;;;;;;;12.43;5.10;;;;;;;37.61;16.25;99303.16;4892004;29;20607;-74
2024/04/01 07:45:55;;;;;;;13.73;5.00;;;;;;;37.27;16.85;99292.13;4876949;29;20238;-73
2024/04/01 07:48:21;;;;;;;9.57;4.95;;;;;;;37.85;16.56;99304.50;4890805;29;20055;-73
2024/04/01 07:50:47;;;;;;;13.07;4.78;;;;;;;37.47;15.89;99278.69;4874029;29;20045;-74
2024/04/01 07:53:15;;;;;;;13.65;4.90;;;;;;;37.99;15.58;99286.41;4908070;29;20420;-75
2024/04/01 07:55:41;;;;;;;9.73;4.47;;;;;;;37.74;15.63;99286.94;4894947;29;20047;-73
2024/04/01 07:58:07;;;;;;;18.02;5.32;;;;;;;38.37;15.29;99266.81;4891728;29;20115;-74
2024/04/01 08:00:36;;;;;;;16.15;4.63;;;;;;;39.29;15.26;99281.53;4894689;29;20049;-81
2024/04/01 08:03:02;;;;;;;10.10;4.28;;;;;;;39.25;14.49;99269.44;4892022;29;20076;-76
2024/04/01 08:05:28;;;;;;;8.48;4.13;;;;;;;38.55;14.29;99254.50;4895936;29;20040;-80
2024/04/01 08:07:55;;;;;;;8.85;3.95;;;;;;;38.28;14.34;99265.34;4912623;29;20068;-81
2024/04/01 08:10:28;;;;;;;10.75;4.22;;;;;;;39.04;14.70;99246.06;4898334;29;20044;-84
2024/04/01 08:12:54;;;;;;;13.60;4.00;;;;;;;39.26;13.51;99250.16;4887247;29;20055;-81
2024/04/01 08:15:20;;;;;;;12.05;4.10;;;;;;;39.24;14.02;99273.22;4884919;29;20123;-76
2024/04/01 08:17:48;;;;;;;23.17;4.38;;;;;;;39.03;13.56;99242.53;4901887;29;20116;-84
2024/04/01 08:20:14;;;;;;;12.05;4.10;;;;;;;38.61;13.71;99245.50;4913047;29;20100;-81
2024/04/01 08:22:40;;;;;;;7.93;4.00;;;;;;;38.36;13.60;99253.44;4902493;29;20056;-81
2024/04/01 08:25:07;;;;;;;9.35;4.25;;;;;;;38.71;13.62;99242.34;4899868;29;20047;-75
2024/04/01 08:27:33;;;;;;;12.63;3.85;;;;;;;38.74;13.27;99220.19;4884511;29;20048;-77
2024/04/01 08:29:59;;;;;;;8.20;4.00;;;;;;;38.59;13.52;99217.69;4889126;29;20522;-78
2024/04/01 08:32:25;;;;;;;11.73;3.45;;;;;;;38.41;12.98;99226.50;4901696;29;20135;-76
2024/04/01 08:34:51;;;;;;;15.35;4.05;;;;;;;38.89;13.31;99221.84;4899489;29;20044;-76
2024/04/01 08:37:17;;;;;;;11.90;3.80;;;;;;;39.60;13.79;99191.03;4900165;29;20056;-75
2024/04/01 08:39:43;;;;;;;8.90;3.50;;;;;;;40.27;12.99;99208.00;4904047;29;20045;-75
2024/04/01 08:42:11;;;;;;;17.75;3.80;;;;;;;39.77;12.41;99212.31;4889269;29;20044;-76
2024/04/01 08:44:38;;;;;;;7.45;3.63;;;;;;;39.69;12.31;99204.38;4874312;29;20068;-75
2024/04/01 08:47:05;;;;;;;16.08;3.63;;;;;;;39.66;12.54;99192.03;4898578;29;20131;-74
2024/04/01 08:49:44;;;;;;;27.63;5.00;;;;;;;39.53;12.06;99206.56;4916923;29;20499;-79
2024/04/01 08:52:14;;;;;;;15.23;3.90;;;;;;;39.22;12.37;99194.53;4903012;29;20059;-79
2024/04/01 08:54:41;;;;;;;14.75;3.67;;;;;;;39.29;12.22;99179.03;4919161;29;20055;-78
2024/04/01 08:57:07;;;;;;;20.65;3.85;;;;;;;38.58;12.52;99207.88;4887583;29;20056;-76
2024/04/01 08:59:35;;;;;;;12.73;3.53;;;;;;;37.22;12.27;99195.09;4891763;29;20107;-72
2024/04/01 09:02:02;;;;;;;6.05;2.85;;;;;;;36.70;12.55;99188.38;4899514;29;20049;-76
2024/04/01 09:04:29;;;;;;;18.00;3.42;;;;;;;36.98;13.05;99192.91;4882762;29;20086;-72
2024/04/01 09:06:56;;;;;;;12.93;3.33;;;;;;;37.20;13.51;99183.63;4901182;29;20048;-81
2024/04/01 09:09:24;;;;;;;10.23;3.25;;;;;;;37.00;12.76;99196.25;4921125;29;20056;-81
2024/04/01 09:11:51;;;;;;;12.25;3.88;;;;;;;36.85;13.13;99202.63;4885114;29;20056;-81
2024/04/01 09:14:18;;;;;;;14.30;3.78;;;;;;;36.15;13.21;99197.09;4876307;29;20052;-73
2024/04/01 09:16:44;;;;;;;8.40;3.22;;;;;;;35.98;12.83;99191.13;4910388;29;20123;-73
2024/04/01 09:19:11;;;;;;;11.52;3.88;;;;;;;36.15;13.15;99183.56;4915896;29;20052;-71
2024/04/01 09:21:38;;;;;;;15.25;5.95;;;;;;;36.75;13.73;99140.69;4900866;29;20044;-72
2024/04/01 09:24:05;;;;;;;14.88;4.13;;;;;;;37.91;13.43;99167.16;4875037;29;20060;-74
2024/04/01 09:26:32;;;;;;;8.52;3.45;;;;;;;37.26;12.47;99151.31;4909573;29;20064;-72
2024/04/01 09:29:02;;;;;;;9.98;4.15;;;;;;;36.48;12.88;99181.16;4881235;29;20055;-72
2024/04/01 09:31:29;;;;;;;14.23;4.55;;;;;;;36.13;13.47;99161.28;4886974;29;20052;-82
2024/04/01 09:33:55;;;;;;;19.25;4.80;;;;;;;35.61;13.74;99163.28;4920295;29;20055;-78
2024/04/01 09:36:23;;;;;;;25.00;5.47;;;;;;;35.58;14.10;99122.06;4901177;29;20072;-79
2024/04/01 09:38:52;;;;;;;15.02;4.50;;;;;;;35.67;13.68;99117.34;4881794;29;20527;-75
2024/04/01 09:41:18;;;;;;;17.77;3.75;;;;;;;35.53;13.90;99153.41;4892691;29;20041;-76
2024/04/01 09:43:44;;;;;;;14.07;4.53;;;;;;;35.43;14.48;99148.28;4899626;29;20056;-74
2024/04/01 09:46:11;;;;;;;13.77;4.13;;;;;;;35.40;14.48;99130.59;4913559;29;20191;-76
2024/04/01 09:48:37;;;;;;;15.98;4.93;;;;;;;35.44;14.24;99126.47;4864047;29;20072;-74
2024/04/01 09:51:07;;;;;;;19.35;4.97;;;;;;;35.56;14.67;99132.22;4896616;29;20049;-75
2024/04/01 09:53:33;;;;;;;28.75;5.30;;;;;;;34.60;14.69;99145.78;4882366;29;20508;-72
2024/04/01 09:56:37;;;;;;;13.48;4.63;;;;;;;34.06;15.34;99142.25;4881995;29;20067;-75
2024/04/01 09:59:19;;;;;;;20.10;4.82;;;;;;;34.15;15.17;99129.53;4896815;29;20072;-74
2024/04/01 10:02:00;;;;;;;14.68;4.88;;;;;;;34.27;15.87;99128.03;4897539;29;20060;-74
2024/04/01 10:05:24;;;;;;;17.10;4.75;;;;;;;33.99;15.20;99123.22;4885632;29;20044;-74
2024/04/01 10:08:32;;;;;;;20.40;4.65;;;;;;;32.04;16.09;99127.25;4890358;29;20515;-81
2024/04/01 10:11:18;;;;;;;17.83;4.38;;;;;;;30.85;17.42;99121.94;4882790;29;20051;-76
2024/04/01 10:14:31;;;;;;;19.80;4.60;;;;;;;31.29;17.96;99112.91;4881618;29;20080;-78
2024/04/01 10:17:42;;;;;;;20.92;4.43;;;;;;;31.13;17.69;99124.41;4912868;29;20367;-75
2024/04/01 10:20:47;;;;;;;21.30;4.50;;;;;;;29.58;18.81;99094.56;4898371;29;20048;-80
2024/04/01 10:23:55;;;;;;;25.65;5.10;;;;;;;29.31;19.57;99123.06;4868386;29;20048;-82
2024/04/01 10:26:49;;;;;;;22.85;4.90;;;;;;;28.54;19.69;99131.31;4899351;29;20139;-83
2024/04/01 10:29:52;;;;;;;13.38;4.03;;;;;;;28.16;20.13;99130.44;4900886;29;20052;-82
2024/04/01 10:32:52;;;;;;;17.42;4.70;;;;;;;28.24;20.24;99151.97;4869065;29;20419;-78
2024/04/01 10:35:27;;;;;;;15.32;4.95;;;;;;;28.25;20.54;99134.91;4862638;29;20053;-78
2024/04/01 10:38:26;;;;;;;22.38;4.25;;;;;;;28.35;20.34;99135.75;4885036;29;20056;-79
2024/04/01 10:41:11;;;;;;;13.45;4.45;;;;;;;28.23;20.25;99129.72;4895943;29;20041;-73
2024/04/01 10:44:15;;;;;;;17.65;4.28;;;;;;;28.31;20.27;99144.19;4881006;29;20052;-75
2024/04/01 10:47:25;;;;;;;14.93;4.32;;;;;;;27.81;20.65;99143.38;4899321;29;20064;-81
2024/04/01 10:50:16;;;;;;;13.10;4.33;;;;;;;27.42;20.94;99141.47;4862797;29;20422;-77
2024/04/01 10:52:54;;;;;;;11.95;4.28;;;;;;;26.83;21.21;99100.44;4886719;29;20514;-75
2024/04/01 10:55:47;;;;;;;10.15;4.07;;;;;;;26.57;21.65;99128.41;4883663;29;20040;-74
2024/04/01 10:58:16;;;;;;;12.52;3.80;;;;;;;26.38;21.96;99118.47;4883736;29;20528;-75
2024/04/01 11:00:45;;;;;;;14.90;3.75;;;;;;;26.27;21.58;99123.88;4871625;29;20093;-76
2024/04/01 11:03:14;;;;;;;19.92;4.40;;;;;;;26.06;22.15;99130.03;4910482;29;20049;-81
2024/04/01 11:06:08;;;;;;;16.45;3.88;;;;;;;25.60;22.32;99121.38;4870229;29;20119;-81
2024/04/01 11:08:52;;;;;;;12.82;3.85;;;;;;;25.08;22.09;99097.16;4890192;29;20056;-74
2024/04/01 11:11:21;;;;;;;10.63;3.75;;;;;;;25.06;22.22;99131.91;4899264;29;20044;-74
2024/04/01 11:13:49;;;;;;;9.57;3.58;;;;;;;24.77;22.52;99105.78;4916650;29;20044;-78
2024/04/01 11:16:18;;;;;;;14.63;3.17;;;;;;;24.67;22.50;99088.84;4900356;29;20048;-76
2024/04/01 11:19:24;;;;;;;12.75;3.72;;;;;;;24.61;22.65;99079.53;4883980;29;20418;-75
2024/04/01 11:21:52;;;;;;;10.35;3.25;;;;;;;24.68;22.38;99127.78;4897592;29;20076;-80
2024/04/01 11:25:01;;;;;;;11.13;3.60;;;;;;;24.32;22.39;99111.06;4901301;29;20135;-78
2024/04/01 11:27:57;;;;;;;15.40;3.92;;;;;;;24.23;22.60;99104.66;4856253;29;20053;-80
2024/04/01 11:30:26;;;;;;;12.85;3.25;;;;;;;24.11;22.85;99109.09;4892943;29;20052;-73
2024/04/01 11:33:07;;;;;;;13.68;3.22;;;;;;;24.07;23.04;99094.34;4899709;29;20055;-76
2024/04/01 11:35:39;;;;;;;11.32;3.30;;;;;;;24.09;23.09;99100.38;4918370;29;20056;-81
2024/04/01 11:38:11;;;;;;;6.30;3.28;;;;;;;23.98;23.07;99111.81;4903487;29;20094;-79
2024/04/01 11:40:38;;;;;;;9.57;3.40;;;;;;;23.67;23.04;99090.22;4901291;29;20055;-78
2024/04/01 11:43:08;;;;;;;10.43;3.17;;;;;;;23.57;23.19;99073.28;4872686;29;20523;-73
2024/04/01 11:45:41;;;;;;;12.02;3.67;;;;;;;23.54;23.33;99084.97;4913994;29;20588;-73
2024/04/01 11:48:08;;;;;;;12.55;3.70;;;;;;;23.51;23.56;99087.00;4914553;29;20135;-73
2024/04/01 11:50:35;;;;;;;9.52;3.33;;;;;;;23.55;23.88;99080.50;4915503;29;20055;-71
2024/04/01 11:53:05;;;;;;;12.35;3.38;;;;;;;23.66;24.16;99077.03;4917099;29;20044;-69
2024/04/01 11:55:32;;;;;;;10.20;3.75;;;;;;;23.62;23.92;99081.75;4916929;29;20044;-71
2024/04/01 11:58:12;;;;;;;12.35;3.63;;;;;;;23.57;24.34;99089.19;4918565;29;20467;-71
2024/04/01 12:00:58;;;;;;;12.63;3.10;;;;;;;23.39;24.45;99079.00;4899129;29;20084;-71
2024/04/01 12:03:38;;;;;;;12.50;3.70;;;;;;;23.24;24.78;99080.97;4918805;29;20048;-72
2024/04/01 12:06:05;;;;;;;11.27;3.47;;;;;;;23.10;24.92;99065.19;4918545;29;20044;-72
2024/04/01 12:08:34;;;;;;;10.02;2.92;;;;;;;22.91;25.33;99041.78;4918579;29;20056;-71
2024/04/01 12:11:04;;;;;;;11.68;3.25;;;;;;;23.05;24.93;99073.47;4901876;29;20506;-70
2024/04/01 12:13:31;;;;;;;8.57;2.85;;;;;;;22.87;24.79;99060.56;4868004;29;20391;-73
2024/04/01 12:16:01;;;;;;;10.35;3.63;;;;;;;22.80;25.33;99088.50;4900310;29;20419;-72
2024/04/01 12:18:27;;;;;;;12.73;3.83;;;;;;;22.66;25.75;99072.72;4899643;29;20063;-71
2024/04/01 12:20:55;;;;;;;9.75;4.00;;;;;;;22.45;26.32;99033.50;4899641;29;20045;-71
2024/04/01 12:23:24;;;;;;;12.40;3.58;;;;;;;22.55;26.55;99078.75;4896793;29;20052;-73
2024/04/01 12:25:50;;;;;;;15.07;3.92;;;;;;;22.40;27.43;99076.22;4910758;29;20048;-70
2024/04/01 12:28:18;;;;;;;14.88;4.22;;;;;;;22.29;27.96;99069.97;4918466;29;20052;-71
2024/04/01 12:30:51;;;;;;;12.27;3.90;;;;;;;22.19;28.64;99051.22;4906530;29;20044;-74
2024/04/01 12:33:19;;;;;;;14.82;3.72;;;;;;;22.21;28.77;99068.69;4899646;29;20053;-70
2024/04/01 12:35:49;;;;;;;13.32;4.18;;;;;;;21.98;28.76;99057.03;4911039;29;20095;-71
2024/04/01 12:38:21;;;;;;;10.52;4.18;;;;;;;22.01;29.16;99079.78;4917071;29;20507;-73
2024/04/01 12:40:50;;;;;;;14.10;3.83;;;;;;;21.86;29.45;99069.31;4901819;29;20066;-76
2024/04/01 12:43:19;;;;;;;19.75;4.78;;;;;;;21.76;29.89;99077.00;4885554;29;20048;-70
2024/04/01 12:45:46;;;;;;;18.23;4.55;;;;;;;21.83;29.80;99080.09;4902398;29;20047;-71
2024/04/01 12:48:14;;;;;;;10.45;4.38;;;;;;;21.82;30.18;99073.09;4899571;29;20048;-71
2024/04/01 12:51:05;;;;;;;18.40;4.45;;;;;;;21.86;30.40;99074.59;4898922;29;20566;-70
2024/04/01 12:53:52;;;;;;;12.85;4.60;;;;;;;21.82;30.51;99073.09;4869123;29;20055;-72
2024/04/01 12:56:47;;;;;;;12.50;4.05;;;;;;;21.79;30.41;99065.34;4850403;29;20060;-71
2024/04/01 12:59:20;;;;;;;19.08;5.05;;;;;;;21.75;30.59;99053.28;4890670;29;20063;-70
2024/04/01 13:02:08;;;;;;;11.93;3.83;;;;;;;21.82;30.88;99059.84;4896816;29;20499;-71
2024/04/01 13:04:43;;;;;;;9.38;3.95;;;;;;;21.71;31.22;99054.47;4874877;29;20536;-72
2024/04/01 13:07:33;;;;;;;18.50;4.72;;;;;;;21.72;31.33;99056.16;4916636;29;20132;-70
2024/04/01 13:10:08;;;;;;;10.88;4.32;;;;;;;21.59;31.23;99066.69;4887317;29;20068;-70
2024/04/01 13:12:59;;;;;;;13.63;4.32;;;;;;;21.51;31.68;99053.97;4895188;29;20041;-73
2024/04/01 13:15:39;;;;;;;13.45;4.32;;;;;;;21.45;31.92;99043.78;4899506;29;20100;-70
2024/04/01 13:18:16;;;;;;;14.40;4.50;;;;;;;21.32;32.08;99038.44;4908950;29;20519;-71
2024/04/01 13:20:48;;;;;;;13.20;4.28;;;;;;;21.31;32.31;99045.50;4915273;29;20401;-70
2024/04/01 13:23:23;;;;;;;13.77;4.10;;;;;;;21.27;32.69;99035.22;4915740;29;20130;-70
2024/04/01 13:26:04;;;;;;;14.18;4.70;;;;;;;21.18;32.90;99034.91;4899840;29;20053;-71
2024/04/01 13:28:39;;;;;;;11.07;4.20;;;;;;;21.02;32.84;99023.59;4871880;29;20060;-71
2024/04/01 13:31:38;;;;;;;14.98;4.10;;;;;;;21.04;33.02;99022.56;4897584;29;20280;-68
2024/04/01 13:34:25;;;;;;;12.77;4.30;;;;;;;20.99;33.38;99021.16;4876103;29;20048;-69
2024/04/01 13:36:52;;;;;;;13.63;4.32;;;;;;;20.98;33.70;99024.75;4874838;29;20079;-69
2024/04/01 13:39:45;;;;;;;15.45;4.15;;;;;;;20.98;33.76;99027.38;4896509;29;20049;-70
2024/04/01 13:42:11;;;;;;;13.65;4.68;;;;;;;20.92;34.09;99032.16;4877511;29;20073;-68
2024/04/01 13:44:45;;;;;;;15.35;4.88;;;;;;;20.85;33.83;99024.72;4896413;29;20071;-69
2024/04/01 13:47:39;;;;;;;18.50;4.68;;;;;;;20.79;34.09;99031.22;4881424;29;20174;-68
2024/04/01 13:50:49;;;;;;;11.73;3.88;;;;;;;20.56;34.57;99051.97;4881546;29;20044;-72
2024/04/01 13:53:34;;;;;;;13.40;4.07;;;;;;;20.43;34.75;99033.38;4883712;29;20048;-71
2024/04/01 13:56:15;;;;;;;13.63;4.30;;;;;;;20.35;35.28;99046.25;4880866;29;20500;-71
2024/04/01 13:59:07;;;;;;;17.40;4.70;;;;;;;20.25;35.43;99042.44;4884496;29;20051;-69
2024/04/01 14:02:01;;;;;;;14.45;4.05;;;;;;;20.06;35.97;99022.44;4880404;29;20063;-70
2024/04/01 14:04:54;;;;;;;13.13;4.40;;;;;;;20.09;36.26;99045.16;4895669;29;20104;-71
2024/04/01 14:07:51;;;;;;;13.23;4.35;;;;;;;19.96;36.58;99037.16;4908070;29;20049;-70
2024/04/01 14:10:43;;;;;;;17.45;4.32;;;;;;;19.83;36.57;99048.41;4895735;29;20059;-72
2024/04/01 14:13:25;;;;;;;13.15;4.45;;;;;;;19.60;37.03;99020.75;4895756;29;20511;-67
2024/04/01 14:16:23;;;;;;;13.02;4.70;;;;;;;19.66;37.37;99049.38;4897648;29;20037;-67
2024/04/01 14:19:10;;;;;;;19.20;4.25;;;;;;;19.69;37.43;99043.94;4863440;29;20107;-67
2024/04/01 14:21:37;;;;;;;12.20;4.03;;;;;;;19.70;37.24;99050.91;4896675;29;20048;-68
2024/04/01 14:24:11;;;;;;;14.90;4.25;;;;;;;19.61;37.47;99027.72;4895952;29;20140;-68
2024/04/01 14:26:37;;;;;;;13.88;4.00;;;;;;;19.68;37.72;99041.41;4895741;29;20036;-68
2024/04/01 14:29:04;;;;;;;13.63;4.43;;;;;;;19.51;37.73;99016.88;4880019;29;20048;-68
2024/04/01 14:31:30;;;;;;;15.32;4.47;;;;;;;19.64;38.17;99034.59;4876969;29;20101;-69
2024/04/01 14:33:55;;;;;;;20.23;4.30;;;;;;;19.58;38.34;99035.81;4896971;29;20056;-69
2024/04/01 14:36:23;;;;;;;13.07;5.05;;;;;;;19.59;38.33;99034.00;4895502;29;20401;-69
2024/04/01 14:38:50;;;;;;;13.35;4.53;;;;;;;19.61;38.40;99034.78;4881728;29;20104;-62
2024/04/01 14:41:16;;;;;;;12.85;4.18;;;;;;;19.44;38.58;99015.50;4904808;29;20187;-67
2024/04/01 14:43:44;;;;;;;13.73;4.07;;;;;;;19.57;38.67;99045.50;4895805;29;20060;-67
2024/04/01 14:46:11;;;;;;;17.50;3.83;;;;;;;19.48;38.94;99043.41;4895516;29;20096;-68
2024/04/01 14:48:37;;;;;;;11.07;3.88;;;;;;;19.48;38.81;99050.47;4880033;29;20044;-68
2024/04/01 14:51:03;;;;;;;16.27;4.15;;;;;;;19.32;38.96;99013.56;4911413;29;20096;-67
2024/04/01 14:53:31;;;;;;;14.18;4.05;;;;;;;19.37;38.99;99029.97;4895314;29;20048;-67
2024/04/01 14:55:58;;;;;;;13.68;4.70;;;;;;;19.26;39.22;99022.69;4877832;29;20045;-67
2024/04/01 14:58:26;;;;;;;14.02;4.07;;;;;;;19.27;39.33;99059.53;4891028;29;20052;-68
2024/04/01 15:00:54;;;;;;;13.40;3.92;;;;;;;19.23;39.70;99044.81;4881042;29;20048;-70
2024/04/01 15:03:22;;;;;;;14.38;3.67;;;;;;;19.14;39.79;99057.69;4879268;29;20428;-70
2024/04/01 15:05:48;;;;;;;17.90;4.18;;;;;;;19.08;39.82;99046.53;4879538;29;20148;-69
2024/04/01 15:08:14;;;;;;;12.85;4.18;;;;;;;19.02;40.10;99040.75;4880566;29;20152;-69
2024/04/01 15:10:56;;;;;;;12.88;4.35;;;;;;;18.91;40.31;99044.78;4883248;29;20043;-69
2024/04/01 15:13:22;;;;;;;19.83;4.40;;;;;;;18.84;40.28;99038.19;4894701;29;20059;-69
2024/04/01 15:15:49;;;;;;;12.43;3.97;;;;;;;18.69;40.58;99039.00;4875306;29;20056;-70
2024/04/01 15:18:21;;;;;;;18.73;4.75;;;;;;;18.75;40.68;99050.09;4882770;29;20093;-70
2024/04/01 15:20:49;;;;;;;15.93;4.25;;;;;;;18.66;40.87;99047.94;4868004;29;20056;-70
2024/04/01 15:23:18;;;;;;;14.55;4.63;;;;;;;18.57;41.08;99040.53;4899005;29;20136;-70
2024/04/01 15:25:46;;;;;;;18.35;4.10;;;;;;;18.59;41.30;99055.34;4883317;29;20048;-71
2024/04/01 15:28:15;;;;;;;13.23;4.35;;;;;;;18.54;41.59;99045.97;4896911;29;20131;-71
2024/04/01 15:30:49;;;;;;;24.15;5.05;;;;;;;18.40;41.61;99033.56;4883394;29;20530;-72
2024/04/01 15:33:16;;;;;;;10.02;4.65;;;;;;;18.37;41.81;99037.19;4878033;29;20056;-67
2024/04/01 15:35:44;;;;;;;11.00;4.22;;;;;;;18.32;42.01;99037.44;4903370;29;20045;-68
2024/04/01 15:38:12;;;;;;;18.83;4.30;;;;;;;18.25;42.12;99037.84;4889091;29;20655;-68
2024/04/01 15:40:39;;;;;;;12.70;4.25;;;;;;;18.22;42.33;99030.94;4893088;29;20579;-69
2024/04/01 15:43:05;;;;;;;20.05;4.40;;;;;;;18.27;42.65;99044.72;4902475;29;20048;-71
2024/04/01 15:45:32;;;;;;;16.38;4.80;;;;;;;18.18;42.42;99040.78;4890106;29;20362;-68
2024/04/01 15:48:00;;;;;;;14.27;4.60;;;;;;;18.21;42.71;99048.53;4890374;29;20055;-69
2024/04/01 15:50:27;;;;;;;16.90;4.90;;;;;;;18.05;42.51;99024.78;4889530;29;20356;-69
2024/04/01 15:52:53;;;;;;;16.15;4.45;;;;;;;18.06;42.79;99031.75;4887859;29;20044;-70
2024/04/01 15:55:19;;;;;;;16.95;4.15;;;;;;;18.09;42.95;99037.78;4869862;29;20491;-67
2024/04/01 15:57:45;;;;;;;18.73;5.13;;;;;;;18.00;43.10;99025.97;4884870;29;20239;-69
2024/04/01 16:00:12;;;;;;;16.45;5.40;;;;;;;17.93;43.37;99035.94;4873837;29;20064;-70
2024/04/01 16:02:42;;;;;;;16.48;4.63;;;;;;;17.83;43.07;99018.91;4903322;29;20052;-69
2024/04/01 16:05:15;;;;;;;15.82;4.57;;;;;;;17.93;43.32;99051.72;4885933;29;20515;-67
2024/04/01 16:07:42;;;;;;;13.32;5.20;;;;;;;17.84;43.43;99034.63;4887052;29;20475;-71
2024/04/01 16:10:11;;;;;;;13.98;4.88;;;;;;;17.74;43.52;99023.72;4885773;29;20147;-69
2024/04/01 16:12:37;;;;;;;13.93;4.20;;;;;;;17.75;43.64;99030.69;4887993;29;20044;-70
2024/04/01 16:15:05;;;;;;;9.82;4.38;;;;;;;17.69;43.73;99038.00;4886100;29;20036;-68
2024/04/01 16:17:36;;;;;;;15.20;4.30;;;;;;;17.73;43.75;99053.59;4886745;29;20511;-67
2024/04/01 16:20:08;;;;;;;17.67;4.15;;;;;;;17.57;43.97;99035.09;4888349;29;20040;-70
2024/04/01 16:22:35;;;;;;;12.93;3.78;;;;;;;17.70;44.01;99055.50;4885351;29;20052;-70
2024/04/01 16:25:02;;;;;;;11.80;4.38;;;;;;;17.54;43.83;99037.03;4901377;29;20063;-70
2024/04/01 16:27:51;;;;;;;15.25;4.03;;;;;;;17.61;44.08;99055.06;4884930;29;20194;-69
2024/04/01 16:30:26;;;;;;;12.45;4.55;;;;;;;17.55;44.20;99044.81;4885168;29;20551;-72
2024/04/01 16:32:53;;;;;;;13.32;4.28;;;;;;;17.49;44.12;99050.38;4884327;29;20050;-73
2024/04/01 16:35:19;;;;;;;13.05;4.13;;;;;;;17.47;44.25;99044.34;4886676;29;20148;-70
2024/04/01 16:37:47;;;;;;;13.38;4.07;;;;;;;17.33;44.29;99031.88;4886906;29;20058;-72
2024/04/01 16:40:14;;;;;;;13.52;4.20;;;;;;;17.20;44.49;99020.25;4888145;29;20483;-68
2024/04/01 16:42:41;;;;;;;14.57;5.15;;;;;;;17.32;44.47;99045.97;4884540;29;20051;-72
2024/04/01 16:45:07;;;;;;;11.75;3.83;;;;;;;17.24;44.88;99048.94;4887578;29;20105;-71
2024/04/01 16:47:34;;;;;;;11.15;4.32;;;;;;;17.12;44.84;99032.00;4885728;29;20041;-69
2024/04/01 16:50:02;;;;;;;12.00;4.50;;;;;;;16.90;45.02;99008.50;4886024;29;20056;-69
2024/04/01 16:52:30;;;;;;;13.18;4.78;;;;;;;17.05;45.26;99037.63;4883391;29;20259;-69
2024/04/01 16:54:57;;;;;;;14.30;4.70;;;;;;;16.86;45.18;99026.19;4887249;29;20045;-71
2024/04/01 16:57:24;;;;;;;17.48;4.63;;;;;;;16.92;45.50;99037.31;4887391;29;20048;-71
2024/04/01 16:59:51;;;;;;;10.90;4.43;;;;;;;16.96;45.34;99046.78;4871707;29;20079;-71
2024/04/01 17:02:18;;;;;;;21.08;4.50;;;;;;;16.93;45.50;99057.41;4884819;29;20196;-68
2024/04/01 17:04:45;;;;;;;14.80;4.38;;;;;;;16.73;45.64;99034.72;4899920;29;20040;-70
2024/04/01 17:07:12;;;;;;;13.73;4.22;;;;;;;16.62;45.80;99022.09;4884753;29;20052;-71
2024/04/01 17:09:39;;;;;;;12.18;4.78;;;;;;;16.66;45.90;99031.53;4887089;29;20456;-69
2024/04/01 17:12:07;;;;;;;13.82;5.30;;;;;;;16.71;46.08;99061.91;4884100;29;20041;-71
2024/04/01 17:14:35;;;;;;;11.75;4.53;;;;;;;16.62;46.15;99035.22;4840184;29;20036;-68
2024/04/01 17:17:03;;;;;;;11.32;4.20;;;;;;;16.60;46.02;99037.06;4870602;29;20044;-68
2024/04/01 17:19:34;;;;;;;15.32;4.18;;;;;;;16.49;46.31;99040.19;4883825;29;20060;-69
2024/04/01 17:22:06;;;;;;;;;;;;;;;16.53;46.49;99053.09;4887689;29;20071;-70
2024/04/01 17:24:35;;;;;;;12.98;4.28;;;;;;;16.38;46.41;99033.63;4870631;29;20026;-70
2024/04/01 17:27:03;;;;;;;8.65;3.42;;;;;;;16.37;46.49;99034.53;4884778;29;20500;-70
2024/04/01 17:29:31;;;;;;;12.85;3.67;;;;;;;16.23;46.75;99008.91;4884869;29;20511;-74
2024/04/01 17:31:57;;;;;;;13.05;4.07;;;;;;;16.39;46.54;99040.56;4884138;29;20531;-73
2024/04/01 17:34:26;;;;;;;11.25;4.25;;;;;;;16.27;46.75;99025.38;4870063;29;20040;-69
2024/04/01 17:36:53;;;;;;;11.90;3.75;;;;;;;16.27;46.83;99025.38;4896519;29;20056;-69
2024/04/01 17:39:21;;;;;;;9.32;3.63;;;;;;;16.23;47.08;99035.16;4866946;29;20044;-71
2024/04/01 17:41:47;;;;;;;11.48;4.03;;;;;;;16.12;47.10;99016.41;4881076;29;20048;-69
2024/04/01 17:44:21;;;;;;;13.73;4.22;;;;;;;16.08;47.15;99017.47;4881602;29;20041;-71
2024/04/01 17:46:49;;;;;;;13.88;4.10;;;;;;;16.01;47.32;99016.91;4868589;29;20049;-71
2024/04/01 17:49:16;;;;;;;7.68;3.33;;;;;;;15.95;47.39;99010.16;4882649;29;20599;-72
2024/04/01 17:51:42;;;;;;;10.63;3.70;;;;;;;15.90;47.57;99014.75;4881294;29;20170;-71
2024/04/01 17:54:10;;;;;;;15.68;3.88;;;;;;;15.76;47.94;99006.59;4881720;29;20037;-74
2024/04/01 17:56:37;;;;;;;12.68;4.10;;;;;;;15.88;47.76;99031.47;4865525;29;20496;-71
2024/04/01 17:59:04;;;;;;;18.95;4.30;;;;;;;15.72;47.90;99010.25;4865515;29;20583;-72
2024/04/01 18:01:30;;;;;;;11.30;4.07;;;;;;;15.73;47.89;99009.34;4851786;29;20272;-71
2024/04/01 18:03:59;;;;;;;13.85;4.00;;;;;;;15.78;48.11;99017.84;4867208;29;20456;-71
2024/04/01 18:06:26;;;;;;;11.95;3.72;;;;;;;15.76;48.23;99023.16;4850811;29;20048;-71
2024/04/01 18:08:52;;;;;;;12.15;4.10;;;;;;;15.57;48.22;98993.41;4881225;29;20152;-72
2024/04/01 18:11:19;;;;;;;12.70;3.75;;;;;;;15.70;48.32;99019.97;4867646;29;20137;-72
2024/04/01 18:13:47;;;;;;;15.77;4.00;;;;;;;15.60;48.57;99011.63;4866763;29;20512;-71
2024/04/01 18:16:14;;;;;;;12.38;4.13;;;;;;;15.49;48.63;99001.59;4870227;29;20415;-69
2024/04/01 18:18:41;;;;;;;10.40;3.80;;;;;;;15.54;48.55;99012.75;4868558;29;20045;-71
2024/04/01 18:21:08;;;;;;;8.93;4.00;;;;;;;15.45;48.59;98995.59;4897221;29;20662;-69